sensor_id;sensor_type;location;lat;lon;timestamp;P1;durP1;ratioP1;P2;durP2;ratioP2
18689;SDS011;9782;52.930;15.562;2022-07-10T00:02:06;573.27;;;253.63;;
18689;SDS011;9782;52.930;15.562;2022-07-10T00:04:34;495.77;;;246.03;;
18689;SDS011;9782;52.930;15.562;2022-07-10T00:07:01;563.23;;;246.37;;
18689;SDS011;9782;52.930;15.562;2022-07-10T00:09:29;570.00;;;244.30;;
18689;SDS011;9782;52.930;15.562;2022-07-10T00:11:57;630.00;;;244.13;;
18689;SDS011;9782;52.930;15.562;2022-07-10T00:14:25;542.30;;;247.77;;
18689;SDS011;9782;52.930;15.562;2022-07-10T00:16:52;555.70;;;241.17;;
18689;SDS011;9782;52.930;15.562;2022-07-10T00:19:19;379.43;;;244.23;;
18689;SDS011;9782;52.930;15.562;2022-07-10T00:21:46;412.13;;;237.37;;
18689;SDS011;9782;52.930;15.562;2022-07-10T00:24:13;403.90;;;241.93;;
18689;SDS011;9782;52.930;15.562;2022-07-10T00:26:41;417.10;;;245.17;;
18689;SDS011;9782;52.930;15.562;2022-07-10T00:29:09;458.87;;;240.33;;
18689;SDS011;9782;52.930;15.562;2022-07-10T00:31:36;495.90;;;242.70;;
18689;SDS011;9782;52.930;15.562;2022-07-10T00:34:04;532.70;;;240.83;;
18689;SDS011;9782;52.930;15.562;2022-07-10T00:36:31;555.40;;;243.10;;
18689;SDS011;9782;52.930;15.562;2022-07-10T00:38:58;514.60;;;238.67;;
18689;SDS011;9782;52.930;15.562;2022-07-10T00:41:25;545.10;;;240.23;;
18689;SDS011;9782;52.930;15.562;2022-07-10T00:43:53;573.93;;;244.47;;
18689;SDS011;9782;52.930;15.562;2022-07-10T00:46:23;573.50;;;231.77;;
18689;SDS011;9782;52.930;15.562;2022-07-10T00:48:51;618.60;;;234.97;;
18689;SDS011;9782;52.930;15.562;2022-07-10T00:51:20;634.10;;;222.97;;
18689;SDS011;9782;52.930;15.562;2022-07-10T00:53:49;641.57;;;222.03;;
18689;SDS011;9782;52.930;15.562;2022-07-10T00:56:16;668.67;;;219.23;;
18689;SDS011;9782;52.930;15.562;2022-07-10T00:58:45;664.03;;;221.17;;
18689;SDS011;9782;52.930;15.562;2022-07-10T01:01:13;668.03;;;217.50;;
18689;SDS011;9782;52.930;15.562;2022-07-10T01:03:43;668.73;;;223.13;;
18689;SDS011;9782;52.930;15.562;2022-07-10T01:06:11;662.53;;;218.17;;
18689;SDS011;9782;52.930;15.562;2022-07-10T01:08:38;656.50;;;205.83;;
18689;SDS011;9782;52.930;15.562;2022-07-10T01:11:06;652.67;;;205.03;;
18689;SDS011;9782;52.930;15.562;2022-07-10T01:13:34;642.50;;;207.90;;
18689;SDS011;9782;52.930;15.562;2022-07-10T01:16:02;637.50;;;204.07;;
18689;SDS011;9782;52.930;15.562;2022-07-10T01:18:29;637.10;;;206.67;;
18689;SDS011;9782;52.930;15.562;2022-07-10T01:20:58;650.87;;;212.17;;
18689;SDS011;9782;52.930;15.562;2022-07-10T01:23:25;657.23;;;212.47;;
18689;SDS011;9782;52.930;15.562;2022-07-10T01:25:52;660.53;;;210.67;;
18689;SDS011;9782;52.930;15.562;2022-07-10T01:28:20;657.60;;;214.07;;
18689;SDS011;9782;52.930;15.562;2022-07-10T01:30:48;655.20;;;214.83;;
18689;SDS011;9782;52.930;15.562;2022-07-10T01:33:15;602.63;;;232.00;;
18689;SDS011;9782;52.930;15.562;2022-07-10T01:35:43;635.00;;;227.23;;
18689;SDS011;9782;52.930;15.562;2022-07-10T01:38:11;599.80;;;219.53;;
18689;SDS011;9782;52.930;15.562;2022-07-10T01:40:39;484.53;;;232.83;;
18689;SDS011;9782;52.930;15.562;2022-07-10T01:43:06;524.50;;;224.97;;
18689;SDS011;9782;52.930;15.562;2022-07-10T01:45:33;529.00;;;230.67;;
18689;SDS011;9782;52.930;15.562;2022-07-10T01:48:00;499.77;;;226.17;;
18689;SDS011;9782;52.930;15.562;2022-07-10T01:50:28;609.00;;;230.57;;
18689;SDS011;9782;52.930;15.562;2022-07-10T01:52:56;609.53;;;225.70;;
18689;SDS011;9782;52.930;15.562;2022-07-10T01:55:25;631.57;;;224.20;;
18689;SDS011;9782;52.930;15.562;2022-07-10T01:57:52;593.60;;;233.40;;
18689;SDS011;9782;52.930;15.562;2022-07-10T02:00:20;545.93;;;232.80;;
18689;SDS011;9782;52.930;15.562;2022-07-10T02:02:47;618.43;;;222.40;;
18689;SDS011;9782;52.930;15.562;2022-07-10T02:05:28;570.43;;;231.50;;
18689;SDS011;9782;52.930;15.562;2022-07-10T02:07:55;498.53;;;226.60;;
18689;SDS011;9782;52.930;15.562;2022-07-10T02:10:22;526.37;;;223.37;;
18689;SDS011;9782;52.930;15.562;2022-07-10T02:12:51;595.10;;;223.23;;
18689;SDS011;9782;52.930;15.562;2022-07-10T02:15:18;619.43;;;228.17;;
18689;SDS011;9782;52.930;15.562;2022-07-10T02:17:45;594.10;;;232.73;;
18689;SDS011;9782;52.930;15.562;2022-07-10T02:20:12;556.57;;;232.80;;
18689;SDS011;9782;52.930;15.562;2022-07-10T02:22:40;547.80;;;227.47;;
18689;SDS011;9782;52.930;15.562;2022-07-10T02:25:07;540.10;;;224.87;;
18689;SDS011;9782;52.930;15.562;2022-07-10T02:27:35;548.23;;;233.17;;
18689;SDS011;9782;52.930;15.562;2022-07-10T02:30:04;547.63;;;233.40;;
18689;SDS011;9782;52.930;15.562;2022-07-10T02:32:32;554.63;;;232.10;;
18689;SDS011;9782;52.930;15.562;2022-07-10T02:35:00;507.97;;;234.97;;
18689;SDS011;9782;52.930;15.562;2022-07-10T02:37:27;511.83;;;229.83;;
18689;SDS011;9782;52.930;15.562;2022-07-10T02:39:54;426.40;;;230.27;;
18689;SDS011;9782;52.930;15.562;2022-07-10T02:42:22;458.17;;;236.10;;
18689;SDS011;9782;52.930;15.562;2022-07-10T02:44:49;459.97;;;239.47;;
18689;SDS011;9782;52.930;15.562;2022-07-10T02:47:18;459.73;;;240.17;;
18689;SDS011;9782;52.930;15.562;2022-07-10T02:49:45;455.53;;;239.47;;
18689;SDS011;9782;52.930;15.562;2022-07-10T02:52:13;442.97;;;244.47;;
18689;SDS011;9782;52.930;15.562;2022-07-10T02:54:40;426.87;;;243.97;;
18689;SDS011;9782;52.930;15.562;2022-07-10T02:57:07;451.53;;;238.07;;
18689;SDS011;9782;52.930;15.562;2022-07-10T02:59:35;441.97;;;242.50;;
18689;SDS011;9782;52.930;15.562;2022-07-10T03:02:02;442.93;;;243.37;;
18689;SDS011;9782;52.930;15.562;2022-07-10T03:04:31;473.80;;;234.40;;
18689;SDS011;9782;52.930;15.562;2022-07-10T03:06:58;506.67;;;241.67;;
18689;SDS011;9782;52.930;15.562;2022-07-10T03:09:26;483.33;;;247.23;;
18689;SDS011;9782;52.930;15.562;2022-07-10T03:11:53;450.70;;;242.07;;
18689;SDS011;9782;52.930;15.562;2022-07-10T03:14:20;384.73;;;247.90;;
18689;SDS011;9782;52.930;15.562;2022-07-10T03:16:47;394.13;;;243.20;;
18689;SDS011;9782;52.930;15.562;2022-07-10T03:19:14;416.70;;;246.27;;
18689;SDS011;9782;52.930;15.562;2022-07-10T03:21:42;438.40;;;241.50;;
18689;SDS011;9782;52.930;15.562;2022-07-10T03:24:11;462.77;;;248.80;;
18689;SDS011;9782;52.930;15.562;2022-07-10T03:26:38;479.17;;;237.23;;
18689;SDS011;9782;52.930;15.562;2022-07-10T03:29:05;453.73;;;246.33;;
18689;SDS011;9782;52.930;15.562;2022-07-10T03:31:32;433.50;;;247.43;;
18689;SDS011;9782;52.930;15.562;2022-07-10T03:33:59;456.57;;;245.80;;
18689;SDS011;9782;52.930;15.562;2022-07-10T03:36:26;433.03;;;248.30;;
18689;SDS011;9782;52.930;15.562;2022-07-10T03:38:54;430.27;;;249.87;;
18689;SDS011;9782;52.930;15.562;2022-07-10T03:41:21;415.17;;;249.17;;
18689;SDS011;9782;52.930;15.562;2022-07-10T03:43:49;425.23;;;255.90;;
18689;SDS011;9782;52.930;15.562;2022-07-10T03:46:16;432.37;;;260.73;;
18689;SDS011;9782;52.930;15.562;2022-07-10T03:48:43;406.40;;;267.80;;
18689;SDS011;9782;52.930;15.562;2022-07-10T03:51:10;330.03;;;260.47;;
18689;SDS011;9782;52.930;15.562;2022-07-10T03:53:37;375.87;;;261.43;;
18689;SDS011;9782;52.930;15.562;2022-07-10T03:56:06;388.77;;;261.03;;
18689;SDS011;9782;52.930;15.562;2022-07-10T03:58:33;425.30;;;269.10;;
18689;SDS011;9782;52.930;15.562;2022-07-10T04:00:59;466.77;;;273.10;;
18689;SDS011;9782;52.930;15.562;2022-07-10T04:03:26;470.77;;;275.30;;
18689;SDS011;9782;52.930;15.562;2022-07-10T04:05:53;478.33;;;271.07;;
18689;SDS011;9782;52.930;15.562;2022-07-10T04:08:20;465.53;;;280.23;;
18689;SDS011;9782;52.930;15.562;2022-07-10T04:10:47;460.27;;;278.90;;
18689;SDS011;9782;52.930;15.562;2022-07-10T04:13:16;480.03;;;285.13;;
18689;SDS011;9782;52.930;15.562;2022-07-10T04:15:43;476.53;;;281.37;;
18689;SDS011;9782;52.930;15.562;2022-07-10T04:18:10;435.83;;;291.07;;
18689;SDS011;9782;52.930;15.562;2022-07-10T04:20:37;427.53;;;294.00;;
18689;SDS011;9782;52.930;15.562;2022-07-10T04:23:04;419.07;;;293.80;;
18689;SDS011;9782;52.930;15.562;2022-07-10T04:25:31;409.73;;;300.90;;
18689;SDS011;9782;52.930;15.562;2022-07-10T04:27:58;418.03;;;314.83;;
18689;SDS011;9782;52.930;15.562;2022-07-10T04:30:27;288.23;;;261.93;;
18689;SDS011;9782;52.930;15.562;2022-07-10T04:32:54;323.10;;;291.87;;
18689;SDS011;9782;52.930;15.562;2022-07-10T04:35:21;347.57;;;310.50;;
18689;SDS011;9782;52.930;15.562;2022-07-10T04:37:48;331.73;;;300.40;;
18689;SDS011;9782;52.930;15.562;2022-07-10T04:40:15;335.13;;;302.87;;
18689;SDS011;9782;52.930;15.562;2022-07-10T04:42:42;356.97;;;317.40;;
18689;SDS011;9782;52.930;15.562;2022-07-10T04:45:09;367.27;;;326.67;;
18689;SDS011;9782;52.930;15.562;2022-07-10T04:47:38;348.20;;;312.07;;
18689;SDS011;9782;52.930;15.562;2022-07-10T04:50:06;365.30;;;324.97;;
18689;SDS011;9782;52.930;15.562;2022-07-10T04:52:34;391.70;;;324.70;;
18689;SDS011;9782;52.930;15.562;2022-07-10T04:55:01;409.97;;;327.60;;
18689;SDS011;9782;52.930;15.562;2022-07-10T04:57:28;415.47;;;328.30;;
18689;SDS011;9782;52.930;15.562;2022-07-10T04:59:55;350.43;;;314.60;;
18689;SDS011;9782;52.930;15.562;2022-07-10T05:02:23;295.77;;;268.93;;
18689;SDS011;9782;52.930;15.562;2022-07-10T05:04:51;313.87;;;283.43;;
18689;SDS011;9782;52.930;15.562;2022-07-10T05:07:18;333.03;;;301.63;;
18689;SDS011;9782;52.930;15.562;2022-07-10T05:09:45;357.90;;;319.67;;
18689;SDS011;9782;52.930;15.562;2022-07-10T05:12:12;362.67;;;325.57;;
18689;SDS011;9782;52.930;15.562;2022-07-10T05:14:39;373.70;;;329.27;;
18689;SDS011;9782;52.930;15.562;2022-07-10T05:17:06;355.43;;;318.47;;
18689;SDS011;9782;52.930;15.562;2022-07-10T05:19:33;350.50;;;315.67;;
18689;SDS011;9782;52.930;15.562;2022-07-10T05:22:02;350.40;;;316.23;;
18689;SDS011;9782;52.930;15.562;2022-07-10T05:24:29;367.47;;;330.17;;
18689;SDS011;9782;52.930;15.562;2022-07-10T05:26:56;374.70;;;337.50;;
18689;SDS011;9782;52.930;15.562;2022-07-10T05:29:23;383.77;;;344.50;;
18689;SDS011;9782;52.930;15.562;2022-07-10T05:31:50;373.13;;;334.67;;
18689;SDS011;9782;52.930;15.562;2022-07-10T05:34:18;461.53;;;388.07;;
18689;SDS011;9782;52.930;15.562;2022-07-10T05:36:45;487.60;;;375.47;;
18689;SDS011;9782;52.930;15.562;2022-07-10T05:39:13;423.95;;;364.80;;
18689;SDS011;9782;52.930;15.562;2022-07-10T05:41:40;379.25;;;338.55;;
18689;SDS011;9782;52.930;15.562;2022-07-10T05:44:07;186.63;;;139.65;;
18689;SDS011;9782;52.930;15.562;2022-07-10T05:51:27;257.27;;;234.70;;
18689;SDS011;9782;52.930;15.562;2022-07-10T05:53:54;239.48;;;218.63;;
18689;SDS011;9782;52.930;15.562;2022-07-10T05:56:24;230.07;;;210.35;;
18689;SDS011;9782;52.930;15.562;2022-07-10T05:58:51;54.15;;;49.75;;
18689;SDS011;9782;52.930;15.562;2022-07-10T06:01:20;64.55;;;58.75;;
18689;SDS011;9782;52.930;15.562;2022-07-10T06:03:47;47.40;;;43.20;;
18689;SDS011;9782;52.930;15.562;2022-07-10T06:06:14;41.30;;;36.92;;
18689;SDS011;9782;52.930;15.562;2022-07-10T06:08:41;74.00;;;46.78;;
18689;SDS011;9782;52.930;15.562;2022-07-10T06:11:09;57.15;;;38.63;;
18689;SDS011;9782;52.930;15.562;2022-07-10T06:13:37;61.58;;;41.75;;
18689;SDS011;9782;52.930;15.562;2022-07-10T06:16:05;50.95;;;37.38;;
18689;SDS011;9782;52.930;15.562;2022-07-10T06:18:32;85.05;;;50.00;;
18689;SDS011;9782;52.930;15.562;2022-07-10T06:20:59;84.45;;;55.40;;
18689;SDS011;9782;52.930;15.562;2022-07-10T06:23:26;71.75;;;40.20;;
18689;SDS011;9782;52.930;15.562;2022-07-10T06:25:53;54.30;;;39.05;;
18689;SDS011;9782;52.930;15.562;2022-07-10T06:28:20;49.60;;;20.70;;
18689;SDS011;9782;52.930;15.562;2022-07-10T06:30:49;40.08;;;14.82;;
18689;SDS011;9782;52.930;15.562;2022-07-10T06:33:16;63.60;;;23.38;;
18689;SDS011;9782;52.930;15.562;2022-07-10T06:35:43;62.08;;;42.50;;
18689;SDS011;9782;52.930;15.562;2022-07-10T06:38:10;46.72;;;22.48;;
18689;SDS011;9782;52.930;15.562;2022-07-10T06:40:37;9.75;;;4.35;;
18689;SDS011;9782;52.930;15.562;2022-07-10T06:43:04;9.18;;;4.25;;
18689;SDS011;9782;52.930;15.562;2022-07-10T06:45:31;7.47;;;4.22;;
18689;SDS011;9782;52.930;15.562;2022-07-10T06:48:00;12.77;;;6.72;;
18689;SDS011;9782;52.930;15.562;2022-07-10T06:50:28;26.17;;;13.13;;
18689;SDS011;9782;52.930;15.562;2022-07-10T06:52:56;117.10;;;107.93;;
18689;SDS011;9782;52.930;15.562;2022-07-10T06:55:23;76.35;;;69.20;;
18689;SDS011;9782;52.930;15.562;2022-07-10T06:57:51;100.47;;;79.68;;
18689;SDS011;9782;52.930;15.562;2022-07-10T07:00:19;78.00;;;69.70;;
18689;SDS011;9782;52.930;15.562;2022-07-10T07:02:46;72.22;;;41.78;;
18689;SDS011;9782;52.930;15.562;2022-07-10T07:05:15;47.95;;;26.95;;
18689;SDS011;9782;52.930;15.562;2022-07-10T07:07:42;21.65;;;14.27;;
18689;SDS011;9782;52.930;15.562;2022-07-10T07:10:10;28.40;;;15.93;;
18689;SDS011;9782;52.930;15.562;2022-07-10T07:12:38;48.28;;;21.73;;
18689;SDS011;9782;52.930;15.562;2022-07-10T07:15:05;27.55;;;14.82;;
18689;SDS011;9782;52.930;15.562;2022-07-10T07:17:38;16.38;;;7.30;;
18689;SDS011;9782;52.930;15.562;2022-07-10T07:20:23;28.35;;;16.75;;
18689;SDS011;9782;52.930;15.562;2022-07-10T07:23:08;25.80;;;17.65;;
18689;SDS011;9782;52.930;15.562;2022-07-10T07:25:38;21.40;;;13.38;;
18689;SDS011;9782;52.930;15.562;2022-07-10T07:28:07;29.77;;;26.70;;
18689;SDS011;9782;52.930;15.562;2022-07-10T07:30:34;38.75;;;34.70;;
18689;SDS011;9782;52.930;15.562;2022-07-10T07:33:01;142.10;;;131.80;;
18689;SDS011;9782;52.930;15.562;2022-07-10T07:35:30;159.90;;;148.43;;
18689;SDS011;9782;52.930;15.562;2022-07-10T07:37:57;176.27;;;163.45;;
18689;SDS011;9782;52.930;15.562;2022-07-10T07:40:24;123.05;;;114.35;;
18689;SDS011;9782;52.930;15.562;2022-07-10T07:42:52;46.22;;;43.10;;
18689;SDS011;9782;52.930;15.562;2022-07-10T07:45:20;61.25;;;57.25;;
18689;SDS011;9782;52.930;15.562;2022-07-10T07:47:48;54.95;;;51.30;;
18689;SDS011;9782;52.930;15.562;2022-07-10T07:50:16;51.65;;;48.15;;
18689;SDS011;9782;52.930;15.562;2022-07-10T07:52:46;50.78;;;47.50;;
18689;SDS011;9782;52.930;15.562;2022-07-10T07:55:13;43.00;;;40.13;;
18689;SDS011;9782;52.930;15.562;2022-07-10T07:57:42;53.53;;;49.83;;
18689;SDS011;9782;52.930;15.562;2022-07-10T08:00:11;101.50;;;94.45;;
18689;SDS011;9782;52.930;15.562;2022-07-10T08:02:39;134.25;;;125.13;;
18689;SDS011;9782;52.930;15.562;2022-07-10T08:05:07;226.52;;;209.90;;
18689;SDS011;9782;52.930;15.562;2022-07-10T08:07:35;273.98;;;253.45;;
18689;SDS011;9782;52.930;15.562;2022-07-10T08:10:06;317.98;;;293.55;;
18689;SDS011;9782;52.930;15.562;2022-07-10T08:12:35;348.75;;;320.42;;
18689;SDS011;9782;52.930;15.562;2022-07-10T08:15:04;432.15;;;395.60;;
18689;SDS011;9782;52.930;15.562;2022-07-10T08:17:33;390.80;;;358.92;;
18689;SDS011;9782;52.930;15.562;2022-07-10T08:22:58;338.00;;;311.42;;
18689;SDS011;9782;52.930;15.562;2022-07-10T08:25:31;292.05;;;269.92;;
18689;SDS011;9782;52.930;15.562;2022-07-10T08:28:15;372.50;;;342.13;;
18689;SDS011;9782;52.930;15.562;2022-07-10T08:30:42;413.58;;;379.42;;
18689;SDS011;9782;52.930;15.562;2022-07-10T08:33:11;537.15;;;485.00;;
18689;SDS011;9782;52.930;15.562;2022-07-10T08:35:38;512.58;;;465.38;;
18689;SDS011;9782;52.930;15.562;2022-07-10T08:38:07;501.83;;;454.20;;
18689;SDS011;9782;52.930;15.562;2022-07-10T08:40:36;497.92;;;453.08;;
18689;SDS011;9782;52.930;15.562;2022-07-10T08:43:03;495.17;;;449.15;;
18689;SDS011;9782;52.930;15.562;2022-07-10T08:45:32;351.42;;;324.15;;
18689;SDS011;9782;52.930;15.562;2022-07-10T08:48:02;448.38;;;410.27;;
18689;SDS011;9782;52.930;15.562;2022-07-10T12:38:14;227.93;;;211.43;;
18689;SDS011;9782;52.930;15.562;2022-07-10T12:40:41;217.00;;;203.10;;
18689;SDS011;9782;52.930;15.562;2022-07-10T12:43:08;239.82;;;224.27;;
18689;SDS011;9782;52.930;15.562;2022-07-10T12:45:36;228.40;;;213.23;;
18689;SDS011;9782;52.930;15.562;2022-07-10T12:48:04;232.80;;;217.48;;
18689;SDS011;9782;52.930;15.562;2022-07-10T12:50:33;195.80;;;183.30;;
18689;SDS011;9782;52.930;15.562;2022-07-10T12:53:06;149.50;;;140.05;;
18689;SDS011;9782;52.930;15.562;2022-07-10T14:22:20;417.48;;;386.05;;
18689;SDS011;9782;52.930;15.562;2022-07-10T14:24:49;418.02;;;386.58;;
18689;SDS011;9782;52.930;15.562;2022-07-10T14:27:19;415.65;;;384.63;;
18689;SDS011;9782;52.930;15.562;2022-07-10T14:29:53;385.27;;;356.50;;
18689;SDS011;9782;52.930;15.562;2022-07-10T14:32:28;334.65;;;309.60;;
18689;SDS011;9782;52.930;15.562;2022-07-10T14:35:06;336.27;;;311.15;;
18689;SDS011;9782;52.930;15.562;2022-07-10T14:42:35;374.02;;;346.30;;
18689;SDS011;9782;52.930;15.562;2022-07-10T14:45:07;400.70;;;370.95;;
18689;SDS011;9782;52.930;15.562;2022-07-10T14:47:37;401.13;;;370.60;;
18689;SDS011;9782;52.930;15.562;2022-07-10T14:50:12;251.23;;;234.05;;
18689;SDS011;9782;52.930;15.562;2022-07-10T14:52:50;317.55;;;294.77;;
18689;SDS011;9782;52.930;15.562;2022-07-10T14:55:18;361.90;;;335.52;;
18689;SDS011;9782;52.930;15.562;2022-07-10T14:57:45;421.27;;;389.00;;
18689;SDS011;9782;52.930;15.562;2022-07-10T15:00:13;427.15;;;395.13;;
18689;SDS011;9782;52.930;15.562;2022-07-10T15:02:43;463.90;;;427.40;;
18689;SDS011;9782;52.930;15.562;2022-07-10T15:05:13;577.47;;;530.47;;
18689;SDS011;9782;52.930;15.562;2022-07-10T15:07:44;648.38;;;587.83;;
18689;SDS011;9782;52.930;15.562;2022-07-10T15:10:11;646.35;;;587.78;;
18689;SDS011;9782;52.930;15.562;2022-07-10T15:12:41;643.22;;;581.10;;
18689;SDS011;9782;52.930;15.562;2022-07-10T15:15:09;639.60;;;570.45;;
18689;SDS011;9782;52.930;15.562;2022-07-10T15:17:38;732.03;;;541.40;;
18689;SDS011;9782;52.930;15.562;2022-07-10T15:20:09;731.35;;;544.10;;
18689;SDS011;9782;52.930;15.562;2022-07-10T15:22:38;750.97;;;526.03;;
18689;SDS011;9782;52.930;15.562;2022-07-10T15:25:06;745.00;;;516.95;;
18689;SDS011;9782;52.930;15.562;2022-07-10T15:27:45;749.30;;;504.07;;
18689;SDS011;9782;52.930;15.562;2022-07-10T15:30:18;743.97;;;486.97;;
18689;SDS011;9782;52.930;15.562;2022-07-10T15:32:46;744.80;;;487.13;;
18689;SDS011;9782;52.930;15.562;2022-07-10T15:35:14;741.60;;;479.37;;
18689;SDS011;9782;52.930;15.562;2022-07-10T15:37:44;742.87;;;481.70;;
18689;SDS011;9782;52.930;15.562;2022-07-10T15:40:17;738.73;;;469.23;;
18689;SDS011;9782;52.930;15.562;2022-07-10T15:42:44;740.73;;;473.33;;
18689;SDS011;9782;52.930;15.562;2022-07-10T15:45:27;739.97;;;471.17;;
18689;SDS011;9782;52.930;15.562;2022-07-10T15:47:57;734.73;;;456.33;;
18689;SDS011;9782;52.930;15.562;2022-07-10T15:50:30;742.43;;;479.80;;
18689;SDS011;9782;52.930;15.562;2022-07-10T15:53:03;737.00;;;463.93;;
18689;SDS011;9782;52.930;15.562;2022-07-10T15:55:35;738.73;;;474.93;;
18689;SDS011;9782;52.930;15.562;2022-07-10T15:58:08;737.30;;;467.77;;
18689;SDS011;9782;52.930;15.562;2022-07-10T16:00:39;736.07;;;468.47;;
18689;SDS011;9782;52.930;15.562;2022-07-10T16:03:06;740.07;;;469.90;;
18689;SDS011;9782;52.930;15.562;2022-07-10T16:05:35;740.87;;;469.97;;
18689;SDS011;9782;52.930;15.562;2022-07-10T16:08:02;734.43;;;458.60;;
18689;SDS011;9782;52.930;15.562;2022-07-10T16:10:33;729.63;;;436.63;;
18689;SDS011;9782;52.930;15.562;2022-07-10T16:13:04;727.63;;;431.20;;
18689;SDS011;9782;52.930;15.562;2022-07-10T16:15:35;733.90;;;441.60;;
18689;SDS011;9782;52.930;15.562;2022-07-10T16:18:02;727.90;;;434.43;;
18689;SDS011;9782;52.930;15.562;2022-07-10T16:20:31;727.67;;;436.07;;
18689;SDS011;9782;52.930;15.562;2022-07-10T16:23:04;729.70;;;426.83;;
18689;SDS011;9782;52.930;15.562;2022-07-10T16:25:34;728.70;;;432.80;;
18689;SDS011;9782;52.930;15.562;2022-07-10T16:28:19;731.73;;;442.90;;
18689;SDS011;9782;52.930;15.562;2022-07-10T16:30:48;727.70;;;421.20;;
18689;SDS011;9782;52.930;15.562;2022-07-10T16:33:18;729.53;;;430.93;;
18689;SDS011;9782;52.930;15.562;2022-07-10T16:35:46;735.40;;;438.90;;
18689;SDS011;9782;52.930;15.562;2022-07-10T16:38:14;733.10;;;442.23;;
18689;SDS011;9782;52.930;15.562;2022-07-10T16:40:42;718.97;;;440.17;;
18689;SDS011;9782;52.930;15.562;2022-07-10T16:43:13;719.57;;;443.40;;
18689;SDS011;9782;52.930;15.562;2022-07-10T16:45:41;715.70;;;447.03;;
18689;SDS011;9782;52.930;15.562;2022-07-10T16:48:19;725.83;;;435.77;;
18689;SDS011;9782;52.930;15.562;2022-07-10T16:50:58;726.30;;;409.70;;
18689;SDS011;9782;52.930;15.562;2022-07-10T16:53:32;725.33;;;411.53;;
18689;SDS011;9782;52.930;15.562;2022-07-10T16:59:06;722.23;;;403.60;;
18689;SDS011;9782;52.930;15.562;2022-07-10T17:01:36;723.17;;;402.07;;
18689;SDS011;9782;52.930;15.562;2022-07-10T17:04:12;721.07;;;407.23;;
18689;SDS011;9782;52.930;15.562;2022-07-10T17:06:39;720.90;;;403.60;;
18689;SDS011;9782;52.930;15.562;2022-07-10T17:09:07;716.07;;;381.13;;
18689;SDS011;9782;52.930;15.562;2022-07-10T17:11:35;717.10;;;396.90;;
18689;SDS011;9782;52.930;15.562;2022-07-10T17:14:05;716.83;;;394.63;;
18689;SDS011;9782;52.930;15.562;2022-07-10T17:16:32;716.50;;;395.00;;
18689;SDS011;9782;52.930;15.562;2022-07-10T17:18:59;718.00;;;391.80;;
18689;SDS011;9782;52.930;15.562;2022-07-10T17:21:31;722.53;;;407.03;;
18689;SDS011;9782;52.930;15.562;2022-07-10T17:24:04;723.97;;;407.93;;
18689;SDS011;9782;52.930;15.562;2022-07-10T17:26:38;723.63;;;412.67;;
18689;SDS011;9782;52.930;15.562;2022-07-10T17:29:07;724.63;;;406.97;;
18689;SDS011;9782;52.930;15.562;2022-07-10T17:34:40;716.30;;;388.30;;
18689;SDS011;9782;52.930;15.562;2022-07-10T17:37:15;715.43;;;393.10;;
18689;SDS011;9782;52.930;15.562;2022-07-10T17:39:42;718.03;;;394.57;;
18689;SDS011;9782;52.930;15.562;2022-07-10T17:42:19;723.20;;;411.37;;
18689;SDS011;9782;52.930;15.562;2022-07-10T17:44:54;724.77;;;413.93;;
18689;SDS011;9782;52.930;15.562;2022-07-10T17:47:22;734.63;;;413.43;;
18689;SDS011;9782;52.930;15.562;2022-07-10T17:49:50;738.77;;;411.87;;
18689;SDS011;9782;52.930;15.562;2022-07-10T17:52:17;722.70;;;400.97;;
18689;SDS011;9782;52.930;15.562;2022-07-10T17:54:44;720.53;;;394.13;;
18689;SDS011;9782;52.930;15.562;2022-07-10T17:57:15;715.97;;;391.73;;
18689;SDS011;9782;52.930;15.562;2022-07-10T17:59:44;716.77;;;395.53;;
18689;SDS011;9782;52.930;15.562;2022-07-10T18:02:11;717.70;;;389.27;;
18689;SDS011;9782;52.930;15.562;2022-07-10T18:04:47;717.73;;;392.10;;
18689;SDS011;9782;52.930;15.562;2022-07-10T18:07:20;716.67;;;390.73;;
18689;SDS011;9782;52.930;15.562;2022-07-10T18:09:47;715.13;;;392.97;;
18689;SDS011;9782;52.930;15.562;2022-07-10T18:12:15;718.40;;;394.40;;
18689;SDS011;9782;52.930;15.562;2022-07-10T18:14:43;718.90;;;395.63;;
18689;SDS011;9782;52.930;15.562;2022-07-10T18:17:13;717.10;;;397.57;;
18689;SDS011;9782;52.930;15.562;2022-07-10T18:19:55;721.40;;;399.73;;
18689;SDS011;9782;52.930;15.562;2022-07-10T18:25:17;717.83;;;387.53;;
18689;SDS011;9782;52.930;15.562;2022-07-10T18:27:44;719.10;;;386.83;;
18689;SDS011;9782;52.930;15.562;2022-07-10T18:30:13;723.93;;;402.17;;
18689;SDS011;9782;52.930;15.562;2022-07-10T18:32:45;726.07;;;400.70;;
18689;SDS011;9782;52.930;15.562;2022-07-10T18:35:30;724.57;;;386.80;;
18689;SDS011;9782;52.930;15.562;2022-07-10T18:37:57;722.80;;;391.37;;
18689;SDS011;9782;52.930;15.562;2022-07-10T18:40:25;719.63;;;381.60;;
18689;SDS011;9782;52.930;15.562;2022-07-10T18:42:52;719.47;;;385.20;;
18689;SDS011;9782;52.930;15.562;2022-07-10T18:45:36;718.67;;;388.77;;
18689;SDS011;9782;52.930;15.562;2022-07-10T18:48:04;712.37;;;370.63;;
18689;SDS011;9782;52.930;15.562;2022-07-10T18:50:31;714.63;;;376.90;;
18689;SDS011;9782;52.930;15.562;2022-07-10T18:53:03;714.70;;;384.00;;
18689;SDS011;9782;52.930;15.562;2022-07-10T18:55:40;715.83;;;386.87;;
18689;SDS011;9782;52.930;15.562;2022-07-10T18:58:07;717.67;;;379.60;;
18689;SDS011;9782;52.930;15.562;2022-07-10T19:00:34;721.30;;;381.63;;
18689;SDS011;9782;52.930;15.562;2022-07-10T19:05:39;707.77;;;360.83;;
18689;SDS011;9782;52.930;15.562;2022-07-10T19:08:06;703.03;;;352.40;;
18689;SDS011;9782;52.930;15.562;2022-07-10T19:10:33;696.80;;;339.97;;
18689;SDS011;9782;52.930;15.562;2022-07-10T19:13:00;700.30;;;347.00;;
18689;SDS011;9782;52.930;15.562;2022-07-10T19:15:27;701.80;;;355.20;;
18689;SDS011;9782;52.930;15.562;2022-07-10T19:17:56;701.97;;;344.57;;
18689;SDS011;9782;52.930;15.562;2022-07-10T19:20:24;705.40;;;345.53;;
18689;SDS011;9782;52.930;15.562;2022-07-10T19:22:53;710.10;;;351.47;;
18689;SDS011;9782;52.930;15.562;2022-07-10T19:25:20;714.57;;;368.83;;
18689;SDS011;9782;52.930;15.562;2022-07-10T19:27:48;715.37;;;360.37;;
18689;SDS011;9782;52.930;15.562;2022-07-10T19:30:16;716.87;;;358.77;;
18689;SDS011;9782;52.930;15.562;2022-07-10T19:32:43;710.10;;;344.40;;
18689;SDS011;9782;52.930;15.562;2022-07-10T19:42:33;698.60;;;326.50;;
18689;SDS011;9782;52.930;15.562;2022-07-10T19:47:36;689.47;;;309.90;;
18689;SDS011;9782;52.930;15.562;2022-07-10T19:50:03;695.47;;;313.57;;
18689;SDS011;9782;52.930;15.562;2022-07-10T19:52:33;697.37;;;308.80;;
18689;SDS011;9782;52.930;15.562;2022-07-10T19:55:00;696.03;;;304.53;;
18689;SDS011;9782;52.930;15.562;2022-07-10T19:57:28;702.17;;;313.87;;
18689;SDS011;9782;52.930;15.562;2022-07-10T19:59:56;698.87;;;308.53;;